Time;durP1;ratioP1;P1;durP2;ratioP2;P2;SDS_P1;SDS_P2;PMS_P1;PMS_P2;Temp;Humidity;BMP_temperature;BMP_pressure;BME280_temperature;BME280_humidity;BME280_pressure;Samples;Min_cycle;Max_cycle;Signal;HPM_P1;HPM_P2
2023/09/03 00:01:49;;;;;;;2.13;2.03;;;;;;;;;;5034625;28;20219;-85
2023/09/03 00:04:14;;;;;;;2.35;2.15;;;;;;;;;;5035588;28;20291;-85
2023/09/03 00:06:40;;;;;;;3.35;2.75;;;;;;;;;;5039692;28;20240;-85
2023/09/03 00:09:07;;;;;;;2.60;2.40;;;;;;;;;;5054198;28;20232;-84
2023/09/03 00:11:37;;;;;;;2.63;2.43;;;;;;;;;;5023448;28;20305;-85
2023/09/03 00:14:08;;;;;;;2.63;2.43;;;;;;;;;;5058955;28;20233;-85
2023/09/03 00:16:36;;;;;;;2.27;2.07;;;;;;;;;;5055714;28;20230;-86
2023/09/03 00:19:05;;;;;;;3.17;2.88;;;;;;;;;;5053728;28;20306;-86
2023/09/03 00:21:35;;;;;;;4.47;4.07;;;;;;;;;;5040500;28;20213;-86
2023/09/03 00:24:03;;;;;;;2.70;2.50;;;;;;;;;;5053176;28;20236;-85
2023/09/03 00:26:29;;;;;;;3.53;3.22;;;;;;;;;;5056100;28;20237;-84
2023/09/03 00:29:00;;;;;;;3.50;3.07;;;;;;;;;;5033361;28;20313;-84
2023/09/03 00:31:26;;;;;;;4.32;2.60;;;;;;;;;;5030989;28;20214;-84
2023/09/03 00:33:52;;;;;;;4.32;2.97;;;;;;;;;;5051912;28;20233;-84
2023/09/03 00:36:17;;;;;;;2.60;2.40;;;;;;;;;;5037943;28;20869;-83
2023/09/03 00:38:47;;;;;;;5.13;2.70;;;;;;;;;;5055304;28;20219;-84
2023/09/03 00:41:15;;;;;;;2.40;2.20;;;;;;;;;;5073727;28;20252;-84
2023/09/03 00:43:41;;;;;;;2.28;2.17;;;;;;;;;;5037617;28;20606;-84
2023/09/03 00:46:08;;;;;;;3.20;2.90;;;;;;;;;;5036903;28;20213;-84
2023/09/03 00:48:33;;;;;;;2.80;2.43;;;;;;;;;;5049104;28;20209;-83
2023/09/03 00:51:02;;;;;;;2.97;2.67;;;;;;;;;;5052824;28;20793;-84
2023/09/03 00:53:28;;;;;;;2.78;2.55;;;;;;;;;;5037208;28;20242;-85
2023/09/03 00:55:56;;;;;;;4.20;3.00;;;;;;;;;;5058480;28;20317;-85
2023/09/03 00:58:25;;;;;;;5.30;2.50;;;;;;;;;;5042556;28;20206;-85
2023/09/03 01:00:50;;;;;;;2.88;2.67;;;;;;;;;;5055777;28;20226;-84
2023/09/03 01:03:19;;;;;;;2.90;2.70;;;;;;;;;;5031268;28;20214;-84
2023/09/03 01:05:50;;;;;;;3.08;2.78;;;;;;;;;;5053395;28;20868;-85
2023/09/03 01:08:15;;;;;;;3.20;2.50;;;;;;;;;;5039101;28;20225;-85
2023/09/03 01:10:56;;;;;;;3.30;2.60;;;;;;;;;;5048197;28;20269;-84
2023/09/03 01:13:37;;;;;;;3.10;2.87;;;;;;;;;;5076476;28;20224;-85
2023/09/03 01:16:07;;;;;;;3.10;2.33;;;;;;;;;;5034331;28;20226;-84
2023/09/03 01:18:32;;;;;;;2.70;2.50;;;;;;;;;;5032053;28;20214;-83
2023/09/03 01:21:29;;;;;;;2.33;2.23;;;;;;;;;;5033589;28;20230;-83
2023/09/03 01:24:12;;;;;;;2.63;2.42;;;;;;;;;;5056584;28;20308;-84
2023/09/03 01:26:51;;;;;;;2.87;2.67;;;;;;;;;;5060979;28;20226;-85
2023/09/03 01:29:21;;;;;;;3.70;2.63;;;;;;;;;;5039245;28;20217;-84
2023/09/03 01:31:49;;;;;;;2.80;2.60;;;;;;;;;;5041749;28;20237;-83
2023/09/03 01:34:17;;;;;;;3.10;2.80;;;;;;;;;;5059726;28;20638;-84
2023/09/03 01:36:43;;;;;;;2.30;2.10;;;;;;;;;;5041665;28;20227;-84
2023/09/03 01:39:08;;;;;;;3.00;2.80;;;;;;;;;;5030472;28;20226;-84
2023/09/03 01:41:34;;;;;;;2.90;2.70;;;;;;;;;;5032228;28;20219;-84
2023/09/03 01:44:04;;;;;;;3.13;2.70;;;;;;;;;;5071706;28;20229;-83
2023/09/03 01:46:48;;;;;;;3.28;3.08;;;;;;;;;;5036900;28;20234;-82
2023/09/03 01:49:29;;;;;;;3.07;2.87;;;;;;;;;;5054812;28;20225;-83
2023/09/03 01:52:04;;;;;;;3.47;3.20;;;;;;;;;;5081245;28;20225;-84
2023/09/03 01:54:45;;;;;;;3.63;3.43;;;;;;;;;;5041755;28;20229;-82
2023/09/03 01:57:32;;;;;;;3.80;3.50;;;;;;;;;;5037792;28;20702;-84
2023/09/03 02:00:02;;;;;;;4.03;3.53;;;;;;;;;;5045291;28;20238;-84
2023/09/03 02:02:42;;;;;;;3.70;3.40;;;;;;;;;;5043018;28;20682;-83
2023/09/03 02:05:07;;;;;;;4.73;3.50;;;;;;;;;;5040554;28;20687;-84
2023/09/03 02:07:37;;;;;;;3.20;2.90;;;;;;;;;;5024932;28;20286;-84
2023/09/03 02:10:10;;;;;;;3.50;3.20;;;;;;;;;;5039918;28;20326;-83
2023/09/03 02:12:38;;;;;;;2.90;2.70;;;;;;;;;;5055091;28;20233;-84
2023/09/03 02:15:06;;;;;;;3.10;2.90;;;;;;;;;;5042536;28;20222;-83
2023/09/03 02:17:32;;;;;;;3.13;2.87;;;;;;;;;;5038014;28;20306;-83
2023/09/03 02:20:02;;;;;;;4.20;3.90;;;;;;;;;;5039604;28;20230;-83
2023/09/03 02:22:30;;;;;;;3.70;3.40;;;;;;;;;;5022303;28;20223;-83
2023/09/03 02:25:00;;;;;;;3.37;3.17;;;;;;;;;;5032282;28;20703;-84
2023/09/03 02:27:29;;;;;;;3.00;2.70;;;;;;;;;;5027346;28;20815;-83
2023/09/03 02:29:54;;;;;;;2.90;2.47;;;;;;;;;;5067661;28;20259;-83
2023/09/03 02:32:22;;;;;;;2.30;2.20;;;;;;;;;;5044854;28;20202;-83
2023/09/03 02:34:48;;;;;;;3.17;2.97;;;;;;;;;;5063117;28;20260;-83
2023/09/03 02:37:15;;;;;;;4.13;3.20;;;;;;;;;;5060588;28;20213;-84
2023/09/03 02:39:43;;;;;;;3.90;2.60;;;;;;;;;;5058021;28;20221;-83
2023/09/03 02:42:08;;;;;;;2.50;2.30;;;;;;;;;;5046883;28;20231;-83
2023/09/03 02:44:34;;;;;;;2.90;2.70;;;;;;;;;;5063080;28;20226;-83
2023/09/03 02:46:59;;;;;;;2.90;2.70;;;;;;;;;;5042572;28;20234;-82
2023/09/03 02:49:25;;;;;;;2.80;2.60;;;;;;;;;;5037812;28;20228;-82
2023/09/03 02:51:53;;;;;;;3.07;1.90;;;;;;;;;;5041979;28;20223;-84
2023/09/03 02:54:19;;;;;;;4.10;2.50;;;;;;;;;;5053960;28;20292;-84
2023/09/03 02:56:48;;;;;;;2.30;2.10;;;;;;;;;;5041790;28;20229;-83
2023/09/03 02:59:13;;;;;;;2.40;2.20;;;;;;;;;;5061470;28;20224;-84
2023/09/03 03:01:39;;;;;;;2.60;2.47;;;;;;;;;;5036420;28;20230;-82
2023/09/03 03:04:05;;;;;;;4.00;2.80;;;;;;;;;;5047413;28;20245;-81
2023/09/03 03:06:30;;;;;;;2.23;2.13;;;;;;;;;;5047416;28;20280;-83
2023/09/03 03:08:56;;;;;;;2.67;2.47;;;;;;;;;;5059471;28;20222;-84
2023/09/03 03:11:23;;;;;;;3.40;2.50;;;;;;;;;;5045246;28;20267;-82
2023/09/03 03:13:56;;;;;;;2.93;2.23;;;;;;;;;;5063685;28;20248;-81
2023/09/03 03:16:26;;;;;;;2.40;2.20;;;;;;;;;;5027845;28;20242;-83
2023/09/03 03:18:55;;;;;;;2.00;1.90;;;;;;;;;;5047586;28;20262;-84
2023/09/03 03:21:26;;;;;;;2.40;2.20;;;;;;;;;;5056525;28;20225;-81
2023/09/03 03:23:57;;;;;;;4.93;2.50;;;;;;;;;;5037283;28;20234;-82
2023/09/03 03:26:34;;;;;;;2.30;2.20;;;;;;;;;;5051650;28;20719;-82
2023/09/03 03:29:01;;;;;;;2.43;2.23;;;;;;;;;;5060020;28;20226;-82
2023/09/03 03:31:38;;;;;;;2.17;2.07;;;;;;;;;;5052956;28;20229;-82
2023/09/03 03:34:06;;;;;;;2.60;1.90;;;;;;;;;;5043387;28;20275;-82
2023/09/03 03:36:34;;;;;;;2.87;2.33;;;;;;;;;;5034067;28;20234;-83
2023/09/03 03:39:04;;;;;;;2.03;1.93;;;;;;;;;;5042690;28;20226;-83
2023/09/03 03:41:31;;;;;;;3.77;2.60;;;;;;;;;;5041432;28;20287;-81
2023/09/03 03:43:57;;;;;;;2.73;2.50;;;;;;;;;;5035181;28;20222;-82
2023/09/03 03:46:25;;;;;;;3.90;2.10;;;;;;;;;;5070631;28;20209;-80
2023/09/03 03:48:54;;;;;;;2.23;2.13;;;;;;;;;;5052373;28;20221;-82
2023/09/03 03:51:24;;;;;;;2.80;2.33;;;;;;;;;;5032618;28;20263;-82
2023/09/03 03:53:52;;;;;;;3.97;2.57;;;;;;;;;;5056925;28;20218;-82
2023/09/03 03:56:21;;;;;;;3.73;2.30;;;;;;;;;;5054451;28;20228;-82
2023/09/03 03:58:47;;;;;;;2.30;2.10;;;;;;;;;;5055043;28;20227;-82
2023/09/03 04:04:59;;;;;;;2.43;2.23;;;;;;;;;;5089597;28;20686;-82
2023/09/03 04:07:24;;;;;;;4.00;2.40;;;;;;;;;;5070170;28;20223;-82
2023/09/03 04:09:54;;;;;;;3.43;2.57;;;;;;;;;;5035679;28;20248;-84
2023/09/03 04:12:19;;;;;;;2.87;2.30;;;;;;;;;;5040704;28;20213;-83
2023/09/03 04:14:47;;;;;;;4.83;2.73;;;;;;;;;;5058625;28;20245;-83
2023/09/03 04:17:13;;;;;;;5.03;2.70;;;;;;;;;;5058408;28;20231;-81
2023/09/03 04:19:40;;;;;;;3.43;3.17;;;;;;;;;;5060837;28;20231;-82
2023/09/03 04:22:05;;;;;;;3.10;2.83;;;;;;;;;;5052206;28;20317;-81
2023/09/03 04:24:33;;;;;;;2.93;2.70;;;;;;;;;;5025166;28;20226;-82
2023/09/03 04:27:04;;;;;;;3.03;2.83;;;;;;;;;;5043544;28;20651;-81
2023/09/03 04:29:29;;;;;;;3.03;2.73;;;;;;;;;;5064685;28;20227;-83
2023/09/03 04:32:01;;;;;;;5.43;2.50;;;;;;;;;;5051227;28;21053;-80
2023/09/03 04:34:29;;;;;;;2.60;2.20;;;;;;;;;;5034810;28;20226;-82
2023/09/03 04:36:57;;;;;;;3.93;2.50;;;;;;;;;;5047652;28;20237;-82
2023/09/03 04:39:22;;;;;;;2.43;2.20;;;;;;;;;;5043068;28;20230;-82
2023/09/03 04:41:48;;;;;;;2.53;2.33;;;;;;;;;;5048044;28;20252;-81
2023/09/03 04:44:19;;;;;;;3.57;2.80;;;;;;;;;;5055079;28;20230;-82
2023/09/03 04:46:48;;;;;;;2.77;2.57;;;;;;;;;;5043197;28;20713;-83
2023/09/03 04:49:13;;;;;;;2.90;2.70;;;;;;;;;;5035844;28;20219;-83
2023/09/03 04:51:39;;;;;;;2.67;2.47;;;;;;;;;;5048663;28;20649;-83
2023/09/03 04:54:05;;;;;;;2.50;2.30;;;;;;;;;;5051951;28;20222;-81
2023/09/03 04:56:32;;;;;;;2.83;2.70;;;;;;;;;;5026486;28;20222;-81
2023/09/03 04:58:58;;;;;;;3.27;2.43;;;;;;;;;;5030374;28;20231;-83
2023/09/03 05:01:23;;;;;;;2.60;2.40;;;;;;;;;;5044935;28;20312;-82
2023/09/03 05:03:56;;;;;;;2.87;2.20;;;;;;;;;;5049499;28;20230;-82
2023/09/03 05:06:25;;;;;;;3.40;2.10;;;;;;;;;;5073001;28;21191;-82
2023/09/03 05:08:54;;;;;;;2.03;1.93;;;;;;;;;;5066720;28;20242;-81
2023/09/03 05:11:23;;;;;;;2.10;2.00;;;;;;;;;;5029453;28;20222;-81
2023/09/03 05:13:50;;;;;;;1.97;1.87;;;;;;;;;;5060933;28;20232;-80
2023/09/03 05:16:17;;;;;;;2.90;2.60;;;;;;;;;;5051274;28;20218;-82
2023/09/03 05:18:45;;;;;;;2.80;2.50;;;;;;;;;;5045545;28;20226;-80
2023/09/03 05:21:14;;;;;;;2.60;2.40;;;;;;;;;;5062972;28;20268;-81
2023/09/03 05:23:45;;;;;;;3.03;2.40;;;;;;;;;;5062901;28;20308;-82
2023/09/03 05:26:13;;;;;;;3.17;2.83;;;;;;;;;;5072354;28;20223;-81
2023/09/03 05:28:41;;;;;;;2.60;2.40;;;;;;;;;;5060442;28;20308;-81
2023/09/03 05:31:10;;;;;;;2.70;2.40;;;;;;;;;;5040385;28;20291;-81
2023/09/03 05:33:40;;;;;;;3.60;2.30;;;;;;;;;;5056551;28;20214;-80
2023/09/03 05:36:07;;;;;;;3.73;2.87;;;;;;;;;;5023673;28;20219;-82
2023/09/03 05:38:35;;;;;;;2.33;2.13;;;;;;;;;;5063016;28;20218;-82
2023/09/03 05:41:02;;;;;;;2.40;2.20;;;;;;;;;;5041300;28;20222;-80
2023/09/03 05:43:30;;;;;;;3.57;3.27;;;;;;;;;;5046268;28;20229;-82
2023/09/03 05:45:57;;;;;;;3.53;3.23;;;;;;;;;;5045627;28;20301;-82
2023/09/03 05:48:26;;;;;;;3.80;3.50;;;;;;;;;;5055270;28;20687;-82
2023/09/03 05:51:03;;;;;;;4.40;3.53;;;;;;;;;;5044222;28;20217;-82
2023/09/03 05:53:30;;;;;;;6.47;3.97;;;;;;;;;;5058820;28;20221;-81
2023/09/03 05:56:05;;;;;;;3.90;3.60;;;;;;;;;;5039771;28;20221;-82
2023/09/03 05:58:32;;;;;;;4.00;3.70;;;;;;;;;;5048184;28;20243;-81
2023/09/03 06:01:03;;;;;;;5.77;4.43;;;;;;;;;;5045372;28;20296;-81
2023/09/03 06:03:31;;;;;;;5.20;4.70;;;;;;;;;;5059112;28;20229;-81
2023/09/03 06:06:05;;;;;;;5.67;5.17;;;;;;;;;;5042962;28;20246;-81
2023/09/03 06:08:37;;;;;;;6.30;5.80;;;;;;;;;;5050140;28;20218;-81
2023/09/03 06:11:03;;;;;;;6.60;6.03;;;;;;;;;;5037669;28;20218;-82
2023/09/03 06:13:33;;;;;;;6.60;6.00;;;;;;;;;;5061396;28;20218;-83
2023/09/03 06:16:02;;;;;;;8.33;7.53;;;;;;;;;;5074393;28;20264;-84
2023/09/03 06:18:28;;;;;;;8.10;7.40;;;;;;;;;;5059157;28;20218;-82
2023/09/03 06:20:56;;;;;;;10.03;9.13;;;;;;;;;;5051232;28;20290;-83
2023/09/03 06:23:21;;;;;;;10.23;9.23;;;;;;;;;;5045384;28;20300;-83
2023/09/03 06:25:53;;;;;;;11.20;10.17;;;;;;;;;;5044279;28;20247;-84
2023/09/03 06:28:18;;;;;;;10.43;9.63;;;;;;;;;;5048302;28;20222;-82
2023/09/03 06:30:44;;;;;;;10.90;10.07;;;;;;;;;;5057977;28;20218;-83
2023/09/03 06:33:11;;;;;;;11.30;10.17;;;;;;;;;;5042969;28;20281;-83
2023/09/03 06:35:37;;;;;;;10.37;9.47;;;;;;;;;;5042959;28;20214;-83
2023/09/03 06:38:05;;;;;;;9.98;9.07;;;;;;;;;;5041879;28;20256;-85
2023/09/03 06:40:31;;;;;;;10.63;9.63;;;;;;;;;;5074504;28;20225;-86
2023/09/03 06:42:56;;;;;;;10.00;9.00;;;;;;;;;;5064511;28;20218;-84
2023/09/03 06:45:25;;;;;;;9.13;8.32;;;;;;;;;;5046100;28;20209;-84
2023/09/03 06:47:55;;;;;;;8.83;7.80;;;;;;;;;;5024673;28;20239;-83
2023/09/03 06:50:23;;;;;;;8.98;8.18;;;;;;;;;;5062406;28;20230;-82
2023/09/03 06:52:51;;;;;;;8.90;8.10;;;;;;;;;;5072063;28;20887;-84
2023/09/03 06:55:18;;;;;;;8.48;7.80;;;;;;;;;;5038432;28;20308;-85
2023/09/03 06:57:44;;;;;;;8.55;6.93;;;;;;;;;;5046215;28;20218;-85
2023/09/03 07:00:10;;;;;;;7.65;7.05;;;;;;;;;;5042204;28;20221;-83
2023/09/03 07:02:38;;;;;;;7.35;6.60;;;;;;;;;;5062691;28;20219;-85
2023/09/03 07:05:09;;;;;;;7.13;6.53;;;;;;;;;;5066163;28;20218;-86
2023/09/03 07:07:35;;;;;;;7.03;6.32;;;;;;;;;;5037082;28;20297;-83
2023/09/03 07:10:06;;;;;;;6.50;5.90;;;;;;;;;;5060731;28;20214;-84
2023/09/03 07:12:33;;;;;;;5.53;5.03;;;;;;;;;;5052991;28;20223;-85
2023/09/03 07:15:01;;;;;;;6.05;5.55;;;;;;;;;;5051095;28;20224;-85
2023/09/03 07:17:29;;;;;;;5.47;4.72;;;;;;;;;;5061868;28;20218;-84
2023/09/03 07:19:57;;;;;;;4.80;4.40;;;;;;;;;;5062835;28;20263;-85
2023/09/03 07:22:24;;;;;;;6.38;4.15;;;;;;;;;;5053369;28;20282;-86
2023/09/03 07:24:52;;;;;;;4.15;3.85;;;;;;;;;;5040095;28;20214;-85
2023/09/03 07:27:22;;;;;;;3.55;3.20;;;;;;;;;;5047966;28;20222;-84
2023/09/03 07:29:54;;;;;;;5.80;4.10;;;;;;;;;;5047977;28;20238;-84
2023/09/03 07:32:23;;;;;;;4.20;3.15;;;;;;;;;;5046893;28;20221;-86
2023/09/03 07:34:53;;;;;;;3.17;2.88;;;;;;;;;;5052066;28;20227;-85
2023/09/03 07:37:22;;;;;;;3.45;2.85;;;;;;;;;;5048931;28;20333;-86
2023/09/03 07:39:56;;;;;;;2.78;2.45;;;;;;;;;;5039393;28;20230;-86
2023/09/03 07:42:25;;;;;;;5.40;2.25;;;;;;;;;;5038491;28;20302;-85
2023/09/03 07:44:54;;;;;;;4.72;2.40;;;;;;;;;;5050771;28;20273;-86
2023/09/03 07:47:20;;;;;;;2.67;1.75;;;;;;;;;;5036218;28;20242;-85
2023/09/03 07:49:46;;;;;;;2.28;1.60;;;;;;;;;;5041868;28;20225;-86
2023/09/03 07:52:11;;;;;;;3.10;1.83;;;;;;;;;;5056148;28;20217;-89
2023/09/03 07:54:37;;;;;;;2.92;1.88;;;;;;;;;;5038770;28;20256;-86
2023/09/03 07:57:03;;;;;;;2.60;1.42;;;;;;;;;;5069341;28;20228;-84
2023/09/03 07:59:29;;;;;;;2.90;1.50;;;;;;;;;;5065901;28;20289;-86
2023/09/03 08:01:58;;;;;;;1.70;1.60;;;;;;;;;;5074458;28;20278;-86
2023/09/03 08:04:24;;;;;;;1.50;1.33;;;;;;;;;;5054031;28;20234;-85
2023/09/03 08:06:52;;;;;;;2.17;1.23;;;;;;;;;;5056372;28;20248;-85
2023/09/03 08:09:19;;;;;;;3.38;1.52;;;;;;;;;;5064668;28;20202;-81
2023/09/03 08:11:45;;;;;;;2.05;1.30;;;;;;;;;;5059970;28;20222;-80
2023/09/03 08:14:13;;;;;;;3.20;1.25;;;;;;;;;;5036179;28;20228;-85
2023/09/03 08:16:40;;;;;;;1.75;1.17;;;;;;;;;;5050244;28;20298;-82
2023/09/03 08:19:06;;;;;;;2.72;1.45;;;;;;;;;;5061308;28;20210;-82
2023/09/03 08:21:34;;;;;;;2.30;1.05;;;;;;;;;;5069647;28;20256;-85
2023/09/03 08:23:59;;;;;;;4.68;1.20;;;;;;;;;;5057706;28;20268;-85
2023/09/03 08:26:25;;;;;;;2.53;1.20;;;;;;;;;;5057586;28;20230;-84
2023/09/03 08:28:50;;;;;;;2.03;1.20;;;;;;;;;;5056094;28;20206;-85
2023/09/03 08:31:16;;;;;;;2.80;1.13;;;;;;;;;;5048879;28;20222;-85
2023/09/03 08:33:42;;;;;;;3.15;1.60;;;;;;;;;;5060992;28;20548;-86
2023/09/03 08:36:07;;;;;;;1.15;1.05;;;;;;;;;;5068791;28;20214;-84
2023/09/03 08:38:35;;;;;;;1.08;0.88;;;;;;;;;;5050804;28;20232;-83
2023/09/03 08:41:01;;;;;;;2.50;1.10;;;;;;;;;;5086936;28;20233;-85
2023/09/03 08:43:27;;;;;;;1.38;0.93;;;;;;;;;;5065968;28;20224;-84
2023/09/03 08:45:56;;;;;;;1.35;1.05;;;;;;;;;;5050149;28;20215;-85
2023/09/03 08:48:22;;;;;;;1.73;1.05;;;;;;;;;;5069847;28;20218;-86
2023/09/03 08:50:47;;;;;;;3.30;1.02;;;;;;;;;;5052093;28;20249;-84
2023/09/03 08:53:13;;;;;;;1.98;1.00;;;;;;;;;;5048075;28;20235;-84
2023/09/03 08:55:41;;;;;;;1.80;1.00;;;;;;;;;;5058103;28;20222;-84
2023/09/03 08:58:13;;;;;;;2.20;0.98;;;;;;;;;;5062617;28;20229;-84
2023/09/03 09:00:39;;;;;;;2.42;1.05;;;;;;;;;;5072056;28;20241;-85
2023/09/03 09:03:09;;;;;;;7.57;6.80;;;;;;;;;;5034025;28;20214;-84
2023/09/03 09:05:36;;;;;;;4.05;1.30;;;;;;;;;;5056693;28;20247;-84
2023/09/03 09:08:05;;;;;;;1.10;1.00;;;;;;;;;;5052472;28;20270;-85
2023/09/03 09:10:34;;;;;;;1.65;1.25;;;;;;;;;;5071906;28;20223;-85
2023/09/03 09:13:04;;;;;;;1.20;1.10;;;;;;;;;;5048546;28;20274;-87
2023/09/03 09:15:29;;;;;;;0.90;0.90;;;;;;;;;;5045329;28;20222;-84
2023/09/03 09:17:55;;;;;;;0.95;0.70;;;;;;;;;;5055009;28;20236;-84
2023/09/03 09:20:23;;;;;;;2.03;0.82;;;;;;;;;;5062844;28;20236;-86
2023/09/03 09:22:49;;;;;;;1.40;0.98;;;;;;;;;;5028424;28;20214;-86
2023/09/03 09:25:24;;;;;;;2.33;1.10;;;;;;;;;;5044212;28;20224;-86
2023/09/03 09:27:56;;;;;;;1.30;1.20;;;;;;;;;;5082180;28;20283;-84
2023/09/03 09:30:24;;;;;;;1.63;1.10;;;;;;;;;;5054420;28;20238;-84
2023/09/03 09:33:06;;;;;;;1.83;1.13;;;;;;;;;;5039328;28;20243;-85
2023/09/03 09:35:37;;;;;;;1.23;0.90;;;;;;;;;;5075766;28;20233;-83
2023/09/03 09:38:04;;;;;;;3.25;1.40;;;;;;;;;;5056793;28;20248;-86
2023/09/03 09:40:30;;;;;;;1.67;1.17;;;;;;;;;;5068052;28;20249;-85
2023/09/03 09:43:00;;;;;;;0.90;0.90;;;;;;;;;;5052489;28;20301;-85
2023/09/03 09:45:29;;;;;;;0.90;0.82;;;;;;;;;;5037908;28;20304;-82
2023/09/03 09:48:06;;;;;;;2.17;1.05;;;;;;;;;;5055980;28;20313;-87
2023/09/03 09:50:41;;;;;;;0.88;0.88;;;;;;;;;;5065541;28;20747;-86
2023/09/03 09:53:27;;;;;;;1.23;1.13;;;;;;;;;;5064495;28;20225;-81
2023/09/03 09:56:00;;;;;;;1.08;0.85;;;;;;;;;;5083291;28;20226;-82
2023/09/03 09:58:38;;;;;;;1.20;1.10;;;;;;;;;;5066119;28;20851;-85
2023/09/03 10:01:05;;;;;;;0.90;0.73;;;;;;;;;;5061547;28;20228;-85
2023/09/03 10:03:39;;;;;;;2.88;1.13;;;;;;;;;;5059960;28;20272;-84
2023/09/03 10:06:08;;;;;;;0.90;0.90;;;;;;;;;;5077122;28;20221;-82
2023/09/03 10:08:36;;;;;;;1.85;1.00;;;;;;;;;;5042564;28;20325;-86
2023/09/03 10:11:02;;;;;;;3.00;0.90;;;;;;;;;;5029964;28;20294;-85
2023/09/03 10:13:38;;;;;;;1.40;0.88;;;;;;;;;;5055943;28;20218;-84
2023/09/03 10:16:09;;;;;;;1.50;0.90;;;;;;;;;;5049618;28;20238;-86
2023/09/03 10:18:46;;;;;;;5.07;1.00;;;;;;;;;;5058911;28;20276;-83
2023/09/03 10:21:12;;;;;;;1.80;0.93;;;;;;;;;;5068845;28;20228;-87
2023/09/03 10:23:45;;;;;;;1.83;1.00;;;;;;;;;;5051629;28;20264;-87
2023/09/03 10:26:13;;;;;;;0.88;0.88;;;;;;;;;;5045955;28;20245;-84
2023/09/03 10:28:43;;;;;;;1.10;1.00;;;;;;;;;;5048271;28;20242;-81
2023/09/03 10:31:09;;;;;;;2.03;1.20;;;;;;;;;;5061978;28;20218;-83
2023/09/03 10:33:40;;;;;;;2.55;1.10;;;;;;;;;;5049716;28;20218;-83
2023/09/03 10:36:18;;;;;;;1.15;1.00;;;;;;;;;;5067647;28;20233;-83
2023/09/03 10:38:47;;;;;;;3.90;1.10;;;;;;;;;;5056160;28;20240;-85
2023/09/03 10:41:26;;;;;;;2.03;1.20;;;;;;;;;;5063182;28;20218;-83
2023/09/03 10:43:55;;;;;;;1.08;0.90;;;;;;;;;;5068029;28;20218;-87
2023/09/03 10:46:25;;;;;;;1.17;0.98;;;;;;;;;;5055040;28;20224;-86
2023/09/03 10:48:58;;;;;;;2.05;1.08;;;;;;;;;;5083753;28;20205;-83
2023/09/03 10:51:43;;;;;;;1.95;1.20;;;;;;;;;;5056396;28;20232;-86
2023/09/03 10:54:19;;;;;;;3.22;1.27;;;;;;;;;;5054284;28;20230;-82
2023/09/03 10:57:06;;;;;;;1.80;1.10;;;;;;;;;;5064862;28;20241;-84
2023/09/03 11:00:15;;;;;;;1.23;1.13;;;;;;;;;;5063776;28;20229;-82
2023/09/03 11:02:43;;;;;;;1.35;1.13;;;;;;;;;;4988469;28;20400;-84
2023/09/03 11:05:26;;;;;;;1.38;1.25;;;;;;;;;;5034483;28;20241;-83
2023/09/03 11:08:29;;;;;;;1.10;1.00;;;;;;;;;;5092699;28;20222;-82
2023/09/03 11:10:57;;;;;;;1.17;1.08;;;;;;;;;;5075908;28;20353;-85
2023/09/03 11:13:28;;;;;;;1.85;1.25;;;;;;;;;;5052087;28;20269;-83
2023/09/03 11:15:57;;;;;;;1.45;1.10;;;;;;;;;;5066183;28;20230;-84
2023/09/03 11:18:28;;;;;;;2.35;1.27;;;;;;;;;;5058452;28;20225;-84
2023/09/03 11:20:57;;;;;;;1.33;1.20;;;;;;;;;;5052031;28;20222;-84
2023/09/03 11:23:22;;;;;;;1.15;1.08;;;;;;;;;;5061075;28;23143;-84
2023/09/03 11:25:52;;;;;;;1.75;0.90;;;;;;;;;;5071609;28;20549;-83
2023/09/03 11:28:18;;;;;;;1.67;1.00;;;;;;;;;;5090802;28;20207;-86
2023/09/03 11:30:44;;;;;;;2.90;1.30;;;;;;;;;;5044201;28;20233;-84
2023/09/03 11:33:23;;;;;;;1.00;1.00;;;;;;;;;;5058335;28;20214;-86
2023/09/03 11:35:48;;;;;;;1.23;1.13;;;;;;;;;;5067350;28;20226;-86
2023/09/03 11:38:16;;;;;;;1.60;1.27;;;;;;;;;;5063271;28;20198;-86
2023/09/03 11:40:44;;;;;;;1.50;1.08;;;;;;;;;;5058017;28;20262;-88
2023/09/03 11:43:09;;;;;;;1.27;1.00;;;;;;;;;;5058349;28;20235;-87
2023/09/03 11:45:35;;;;;;;1.10;1.00;;;;;;;;;;5054537;28;20480;-87
2023/09/03 11:48:06;;;;;;;1.42;1.33;;;;;;;;;;5078195;28;20679;-86
2023/09/03 11:50:33;;;;;;;2.08;1.38;;;;;;;;;;5042327;28;20214;-84
2023/09/03 11:52:59;;;;;;;4.10;1.50;;;;;;;;;;5041058;28;20224;-86
2023/09/03 11:55:42;;;;;;;1.10;1.00;;;;;;;;;;5059504;28;20197;-84
2023/09/03 11:58:08;;;;;;;1.30;1.20;;;;;;;;;;5072902;28;20701;-86
2023/09/03 12:00:34;;;;;;;1.02;0.98;;;;;;;;;;5083236;28;20241;-87
2023/09/03 12:03:00;;;;;;;1.05;0.90;;;;;;;;;;5052736;28;20621;-87
2023/09/03 12:05:28;;;;;;;1.33;1.10;;;;;;;;;;5071274;28;20234;-87
2023/09/03 12:08:01;;;;;;;1.52;1.23;;;;;;;;;;5050098;28;20255;-84
2023/09/03 12:10:31;;;;;;;1.23;1.05;;;;;;;;;;5064636;28;20228;-83
2023/09/03 12:13:03;;;;;;;1.00;1.00;;;;;;;;;;5051588;28;20210;-87
2023/09/03 12:15:30;;;;;;;1.48;1.30;;;;;;;;;;5047664;28;20238;-86
2023/09/03 12:18:08;;;;;;;1.75;1.20;;;;;;;;;;5056856;28;20262;-87
2023/09/03 12:20:37;;;;;;;1.88;1.40;;;;;;;;;;5060630;28;20678;-88
2023/09/03 12:23:15;;;;;;;1.45;1.08;;;;;;;;;;5058272;28;20214;-84
2023/09/03 12:25:41;;;;;;;2.25;1.35;;;;;;;;;;5041755;28;20621;-87
2023/09/03 12:28:08;;;;;;;2.47;1.40;;;;;;;;;;5051093;28;20221;-84
2023/09/03 12:30:58;;;;;;;1.92;1.20;;;;;;;;;;5046071;28;20235;-87
2023/09/03 12:33:33;;;;;;;2.47;1.20;;;;;;;;;;5060820;28;20213;-84
2023/09/03 12:36:09;;;;;;;1.08;1.00;;;;;;;;;;5067807;28;20217;-87
2023/09/03 12:38:54;;;;;;;1.42;1.30;;;;;;;;;;5055647;28;20228;-88
2023/09/03 12:41:26;;;;;;;1.60;1.25;;;;;;;;;;5084721;28;20230;-89
2023/09/03 12:43:53;;;;;;;1.00;0.90;;;;;;;;;;5035415;28;20237;-88
2023/09/03 12:46:19;;;;;;;2.58;1.35;;;;;;;;;;5058084;28;20718;-87
2023/09/03 12:48:47;;;;;;;1.55;1.27;;;;;;;;;;5048694;28;20279;-87
2023/09/03 12:51:13;;;;;;;1.67;1.20;;;;;;;;;;5048803;28;20194;-84
2023/09/03 12:53:41;;;;;;;1.40;1.27;;;;;;;;;;5056710;28;20218;-86
2023/09/03 12:56:07;;;;;;;2.97;1.40;;;;;;;;;;5060921;28;20210;-86
2023/09/03 12:58:35;;;;;;;1.67;1.50;;;;;;;;;;5080103;28;20219;-86
2023/09/03 13:01:00;;;;;;;3.03;1.30;;;;;;;;;;5056692;28;20210;-88
2023/09/03 13:03:29;;;;;;;3.92;1.52;;;;;;;;;;5055911;28;20227;-86
2023/09/03 13:05:58;;;;;;;1.85;1.23;;;;;;;;;;5095862;28;20250;-87
2023/09/03 13:08:26;;;;;;;1.73;1.20;;;;;;;;;;5052485;28;20226;-88
2023/09/03 13:10:51;;;;;;;1.58;1.20;;;;;;;;;;5062500;28;20222;-88
2023/09/03 13:13:17;;;;;;;4.90;1.30;;;;;;;;;;5060657;28;20273;-87
2023/09/03 13:15:46;;;;;;;1.58;1.17;;;;;;;;;;5065574;28;20222;-87
2023/09/03 13:18:14;;;;;;;1.23;1.10;;;;;;;;;;5046031;28;20222;-88
2023/09/03 13:20:40;;;;;;;1.50;1.20;;;;;;;;;;5026922;28;20663;-88
2023/09/03 13:23:06;;;;;;;1.52;1.42;;;;;;;;;;5043853;28;20580;-87
2023/09/03 13:25:34;;;;;;;1.38;1.27;;;;;;;;;;5060221;28;20220;-84
2023/09/03 13:27:59;;;;;;;3.05;1.20;;;;;;;;;;5056917;28;20221;-86
2023/09/03 13:30:28;;;;;;;1.20;1.10;;;;;;;;;;5034812;28;20223;-86
2023/09/03 13:32:56;;;;;;;2.10;1.38;;;;;;;;;;5063897;28;20230;-86
2023/09/03 13:35:25;;;;;;;1.08;0.95;;;;;;;;;;5034726;28;20229;-85
2023/09/03 13:37:50;;;;;;;1.42;1.30;;;;;;;;;;5054007;28;20226;-88
2023/09/03 13:40:16;;;;;;;1.55;1.00;;;;;;;;;;5055692;28;20649;-85
2023/09/03 13:42:41;;;;;;;1.17;1.10;;;;;;;;;;5067081;28;20209;-87
2023/09/03 13:45:11;;;;;;;1.20;1.10;;;;;;;;;;5069222;28;20248;-86
2023/09/03 13:47:39;;;;;;;1.65;1.40;;;;;;;;;;5048318;28;20278;-85
2023/09/03 13:50:08;;;;;;;2.53;1.15;;;;;;;;;;5028257;28;20798;-78
2023/09/03 13:52:36;;;;;;;1.80;1.20;;;;;;;;;;5060829;28;20214;-79
2023/09/03 13:55:01;;;;;;;1.30;1.20;;;;;;;;;;5064366;28;20229;-76
2023/09/03 13:57:27;;;;;;;2.05;1.42;;;;;;;;;;5089298;28;20222;-77
2023/09/03 13:59:56;;;;;;;2.40;1.10;;;;;;;;;;5076426;28;20226;-78
2023/09/03 14:02:23;;;;;;;1.30;1.20;;;;;;;;;;5058232;28;20222;-78
2023/09/03 14:04:48;;;;;;;1.42;1.10;;;;;;;;;;5061277;28;20248;-78
2023/09/03 14:07:16;;;;;;;0.85;0.70;;;;;;;;;;5059049;28;20221;-79
2023/09/03 14:09:42;;;;;;;1.88;0.80;;;;;;;;;;5065430;28;20237;-79
2023/09/03 14:12:07;;;;;;;1.10;1.00;;;;;;;;;;5036483;28;20214;-80
2023/09/03 14:14:33;;;;;;;2.67;1.08;;;;;;;;;;5030862;28;20741;-79
2023/09/03 14:16:59;;;;;;;2.40;1.05;;;;;;;;;;5081976;28;20251;-79
2023/09/03 14:19:27;;;;;;;1.00;1.00;;;;;;;;;;5061173;28;20233;-80
2023/09/03 14:21:52;;;;;;;2.08;1.05;;;;;;;;;;5065972;28;20219;-79
2023/09/03 14:24:18;;;;;;;1.75;1.20;;;;;;;;;;5029245;28;20334;-80
2023/09/03 14:26:46;;;;;;;1.08;1.00;;;;;;;;;;5081290;28;20891;-79
2023/09/03 14:29:14;;;;;;;1.52;1.00;;;;;;;;;;5080665;28;20225;-79
2023/09/03 14:31:42;;;;;;;1.45;1.10;;;;;;;;;;5063698;28;20233;-79
2023/09/03 14:34:07;;;;;;;2.10;1.27;;;;;;;;;;5028111;28;20236;-76
2023/09/03 14:36:33;;;;;;;1.70;1.40;;;;;;;;;;5069904;28;20218;-79
2023/09/03 14:38:58;;;;;;;1.35;1.10;;;;;;;;;;5068935;28;20229;-78
2023/09/03 14:41:25;;;;;;;1.60;1.08;;;;;;;;;;5030252;28;20226;-79
2023/09/03 14:43:52;;;;;;;0.98;0.95;;;;;;;;;;5059954;28;20351;-78
2023/09/03 14:46:19;;;;;;;1.50;1.10;;;;;;;;;;5026859;28;20218;-79
2023/09/03 14:48:45;;;;;;;1.00;0.90;;;;;;;;;;5027879;28;20858;-77
2023/09/03 14:51:10;;;;;;;1.15;1.05;;;;;;;;;;5059291;28;20211;-81
2023/09/03 14:53:36;;;;;;;1.48;1.05;;;;;;;;;;5049631;28;20244;-79
2023/09/03 14:56:02;;;;;;;1.38;1.10;;;;;;;;;;5054974;28;20226;-80
2023/09/03 14:58:30;;;;;;;1.50;1.17;;;;;;;;;;5069294;28;20291;-79